Time;durP1;ratioP1;P1;durP2;ratioP2;P2;SDS_P1;SDS_P2;PMS_P1;PMS_P2;Temp;Humidity;BMP_temperature;BMP_pressure;BME280_temperature;BME280_humidity;BME280_pressure;Samples;Min_cycle;Max_cycle;Signal;HPM_P1;HPM_P2
2022/02/23 00:01:47;;;;;;;18.38;3.00;;;6.50;99.90;;;7.57;100.00;100983.06;5086712;28;20181;-77
2022/02/23 00:04:13;;;;;;;18.92;3.17;;;6.50;99.90;;;7.64;100.00;100972.22;5058224;28;20052;-79
2022/02/23 00:06:45;;;;;;;15.63;2.78;;;6.50;99.90;;;7.79;100.00;100982.84;5075333;28;20107;-78
2022/02/23 00:09:11;;;;;;;14.35;2.75;;;6.70;99.90;;;7.88;100.00;100977.22;5075246;28;20036;-78
2022/02/23 00:11:43;;;;;;;16.58;2.80;;;6.60;99.90;;;7.77;100.00;100979.53;5075459;28;20089;-78
2022/02/23 00:14:09;;;;;;;9.60;2.90;;;6.60;99.90;;;7.69;100.00;100980.41;5076772;28;20446;-78
2022/02/23 00:16:40;;;;;;;12.88;3.22;;;6.50;99.90;;;7.68;100.00;100994.63;5075539;28;20025;-77
2022/02/23 00:19:07;;;;;;;19.08;3.10;;;6.50;99.90;;;7.80;100.00;101009.47;5074602;28;20117;-76
2022/02/23 00:21:52;;;;;;;14.02;3.30;;;6.60;99.90;;;7.58;100.00;101006.09;5056812;28;20175;-77
2022/02/23 00:24:18;;;;;;;15.30;3.10;;;6.40;99.90;;;7.67;100.00;101018.84;5074784;28;20124;-78
2022/02/23 00:26:47;;;;;;;17.42;3.45;;;6.40;99.90;;;7.60;100.00;101017.69;5074691;28;20066;-77
2022/02/23 00:29:12;;;;;;;23.13;4.22;;;6.40;99.90;;;7.52;100.00;101022.13;5074017;28;20487;-77
2022/02/23 00:31:38;;;;;;;11.13;3.03;;;6.40;99.90;;;7.36;100.00;101027.38;5074807;28;20048;-78
2022/02/23 00:34:07;;;;;;;22.42;4.70;;;6.30;99.90;;;7.32;100.00;101018.03;5074950;28;20450;-77
2022/02/23 00:36:34;;;;;;;19.83;3.53;;;6.20;99.90;;;7.35;100.00;101027.72;5073277;28;20076;-76
2022/02/23 00:39:00;;;;;;;19.67;4.05;;;6.20;99.90;;;7.41;100.00;101034.72;5074781;28;20028;-77
2022/02/23 00:41:26;;;;;;;12.35;3.63;;;6.20;99.90;;;7.32;100.00;101045.03;5073278;28;20040;-77
2022/02/23 00:43:55;;;;;;;17.05;3.40;;;6.10;99.90;;;7.22;100.00;101037.03;5056258;28;20113;-76
2022/02/23 00:46:22;;;;;;;19.42;4.13;;;6.10;99.90;;;7.23;100.00;101047.78;5056814;28;20025;-77
2022/02/23 00:48:48;;;;;;;22.45;4.65;;;6.10;99.90;;;7.22;100.00;101042.56;5074084;28;20020;-76
2022/02/23 00:51:14;;;;;;;19.45;4.32;;;6.00;99.90;;;7.18;100.00;101045.19;5054485;28;20055;-76
2022/02/23 00:53:40;;;;;;;13.55;3.67;;;6.00;99.90;;;7.05;100.00;101045.34;5036325;28;20116;-75
2022/02/23 00:56:05;;;;;;;16.77;3.83;;;5.90;99.90;;;7.03;100.00;101045.63;5053837;28;20065;-76
2022/02/23 00:58:31;;;;;;;15.20;4.03;;;5.90;99.90;;;6.98;100.00;101050.53;5036006;28;20037;-78
2022/02/23 01:01:03;;;;;;;17.10;3.75;;;5.80;99.90;;;6.91;100.00;101051.03;5036210;28;20040;-77
2022/02/23 01:03:32;;;;;;;17.10;4.25;;;5.70;99.90;;;6.87;100.00;101047.28;5054748;28;20029;-77
2022/02/23 01:06:01;;;;;;;18.80;3.40;;;5.70;99.90;;;6.93;100.00;101050.72;5054866;28;20090;-77
2022/02/23 01:08:27;;;;;;;14.35;3.65;;;5.70;99.90;;;6.78;100.00;101051.97;5054052;28;20101;-77
2022/02/23 01:10:53;;;;;;;19.85;3.65;;;5.70;99.90;;;6.70;100.00;101064.72;5053436;28;20464;-77
2022/02/23 01:13:18;;;;;;;20.40;4.15;;;5.60;99.90;;;6.76;100.00;101060.63;5054608;28;20060;-76
2022/02/23 01:15:45;;;;;;;15.60;3.63;;;5.60;99.90;;;6.82;100.00;101075.19;5054289;28;20033;-76
2022/02/23 01:18:11;;;;;;;19.15;3.50;;;5.60;99.90;;;6.81;100.00;101079.91;5052742;28;20029;-78
2022/02/23 01:20:37;;;;;;;20.15;3.60;;;5.60;99.90;;;6.68;100.00;101083.63;5054902;28;20082;-77
2022/02/23 01:23:06;;;;;;;13.07;3.80;;;5.50;99.90;;;6.70;100.00;101088.88;5053998;28;20037;-78
2022/02/23 01:25:32;;;;;;;16.30;3.33;;;5.50;99.90;;;6.73;100.00;101091.81;5054208;28;20369;-78
2022/02/23 01:28:01;;;;;;;18.75;3.47;;;5.60;99.90;;;6.62;100.00;101095.19;5054743;28;20025;-78
2022/02/23 01:30:27;;;;;;;19.30;3.95;;;5.50;99.90;;;6.62;100.00;101101.56;5053457;28;20032;-78
2022/02/23 01:32:53;;;;;;;17.05;3.80;;;5.50;99.90;;;6.63;100.00;101102.38;5055434;28;20049;-77
2022/02/23 01:35:20;;;;;;;16.10;4.72;;;5.50;99.90;;;6.50;100.00;101104.13;5036769;28;20491;-77
2022/02/23 01:37:46;;;;;;;16.02;3.08;;;5.40;99.90;;;6.42;100.00;101109.66;5054207;28;20032;-77
2022/02/23 01:40:14;;;;;;;15.70;3.28;;;5.40;99.90;;;6.33;100.00;101101.28;5053849;28;20025;-77
2022/02/23 01:42:41;;;;;;;15.52;3.83;;;5.30;99.90;;;6.41;100.00;101106.06;5054974;28;20484;-78
2022/02/23 01:45:08;;;;;;;18.30;3.65;;;5.20;99.90;;;6.26;100.00;101112.81;5056242;28;20585;-76
2022/02/23 01:47:36;;;;;;;18.95;3.65;;;5.10;99.90;;;6.23;100.00;101115.41;5054661;28;20484;-77
2022/02/23 01:50:04;;;;;;;17.05;3.65;;;5.10;99.90;;;6.16;100.00;101115.06;5063295;28;20035;-77
2022/02/23 01:52:34;;;;;;;22.40;3.25;;;5.00;99.90;;;6.11;100.00;101120.72;5074498;28;20036;-76
2022/02/23 01:55:00;;;;;;;16.58;3.45;;;5.10;99.90;;;6.12;100.00;101123.19;5056077;28;20051;-76
2022/02/23 01:57:29;;;;;;;16.50;3.20;;;5.00;99.90;;;6.15;100.00;101130.88;5073500;28;20032;-75
2022/02/23 01:59:55;;;;;;;14.52;2.80;;;5.10;99.90;;;6.12;100.00;101119.59;5073050;28;20193;-77
2022/02/23 02:02:21;;;;;;;25.73;3.30;;;5.00;99.90;;;6.24;100.00;101126.19;5072089;28;20379;-78
2022/02/23 02:04:48;;;;;;;17.15;3.25;;;5.10;99.90;;;6.16;100.00;101131.72;5073722;28;20037;-77
2022/02/23 02:07:17;;;;;;;17.38;3.13;;;5.00;99.90;;;6.05;100.00;101133.91;5072957;28;20025;-77
2022/02/23 02:09:43;;;;;;;17.55;3.53;;;4.90;99.90;;;5.97;100.00;101139.41;5073233;28;20392;-77
2022/02/23 02:12:09;;;;;;;21.25;4.15;;;4.80;99.90;;;5.92;100.00;101140.34;5073783;28;20040;-77
2022/02/23 02:14:36;;;;;;;17.60;3.88;;;4.80;99.90;;;5.89;100.00;101143.75;5073972;28;20028;-77
2022/02/23 02:17:02;;;;;;;19.88;3.47;;;4.80;99.90;;;5.79;100.00;101144.78;5073929;28;20040;-77
2022/02/23 02:19:28;;;;;;;16.45;3.20;;;4.70;99.90;;;5.74;100.00;101156.00;5072827;28;20103;-77
2022/02/23 02:22:09;;;;;;;19.25;3.78;;;4.60;99.90;;;5.75;100.00;101154.03;5055756;28;20470;-77
2022/02/23 02:24:44;;;;;;;13.70;3.65;;;4.60;99.90;;;5.72;100.00;101157.44;5072586;28;20028;-76
2022/02/23 02:27:14;;;;;;;13.18;3.22;;;4.60;99.90;;;5.65;100.00;101155.09;5072754;28;20204;-77
2022/02/23 02:29:43;;;;;;;18.70;3.85;;;4.60;99.90;;;5.60;100.00;101160.75;5055214;28;20350;-75
2022/02/23 02:32:11;;;;;;;19.13;3.30;;;4.50;99.90;;;5.54;100.00;101163.97;5072610;28;20028;-75
2022/02/23 02:34:38;;;;;;;15.55;3.35;;;4.40;99.90;;;5.47;100.00;101164.38;5054695;28;20115;-77
2022/02/23 02:37:07;;;;;;;15.68;3.03;;;4.40;99.90;;;5.46;100.00;101171.03;5072651;28;20382;-77
2022/02/23 02:39:34;;;;;;;19.98;3.92;;;4.30;99.90;;;5.37;100.00;101163.78;5072507;28;20044;-76
2022/02/23 02:42:01;;;;;;;16.15;3.88;;;4.30;99.90;;;5.30;100.00;101162.25;5054704;28;20028;-77
2022/02/23 02:44:27;;;;;;;13.18;3.80;;;4.20;99.90;;;5.29;100.00;101157.88;5072669;28;20121;-76
2022/02/23 02:46:53;;;;;;;18.15;3.20;;;4.20;99.90;;;5.19;100.00;101162.81;5067906;28;20077;-77
2022/02/23 02:49:22;;;;;;;21.08;2.97;;;4.10;99.90;;;5.21;100.00;101169.66;5048126;28;20017;-76
2022/02/23 02:51:55;;;;;;;21.92;4.32;;;4.10;99.90;;;5.12;100.00;101174.28;5052692;28;20028;-76
2022/02/23 02:54:21;;;;;;;20.02;4.32;;;4.10;99.90;;;5.08;100.00;101180.75;5068149;28;20051;-77
2022/02/23 02:56:49;;;;;;;23.42;3.65;;;4.10;99.90;;;5.16;100.00;101180.03;5072677;28;20407;-75
2022/02/23 02:59:15;;;;;;;20.75;3.33;;;4.10;99.90;;;5.17;100.00;101184.47;5072994;28;20036;-75
2022/02/23 03:01:44;;;;;;;18.13;3.78;;;4.00;99.90;;;5.10;100.00;101184.88;5071481;28;20035;-77
2022/02/23 03:04:10;;;;;;;19.02;3.97;;;4.00;99.90;;;5.13;100.00;101181.47;5072324;28;20496;-76
2022/02/23 03:06:36;;;;;;;17.80;4.38;;;4.00;99.90;;;5.12;100.00;101179.00;5072682;28;20024;-75
2022/02/23 03:09:07;;;;;;;17.60;4.22;;;4.00;99.90;;;5.12;100.00;101182.59;5072735;28;20021;-76
2022/02/23 03:11:34;;;;;;;18.85;5.20;;;4.00;99.90;;;5.06;100.00;101183.84;5054392;28;20029;-78
2022/02/23 03:14:00;;;;;;;14.98;3.97;;;4.00;99.90;;;5.14;100.00;101188.63;5072884;28;20483;-76
2022/02/23 03:16:26;;;;;;;16.50;3.28;;;4.00;99.90;;;5.13;100.00;101189.78;5072112;28;20036;-76
2022/02/23 03:18:55;;;;;;;14.27;3.80;;;4.00;99.90;;;5.13;100.00;101191.75;5070620;28;20039;-77
2022/02/23 03:21:24;;;;;;;22.98;4.65;;;4.00;99.90;;;5.18;100.00;101194.38;5072978;28;20033;-78
2022/02/23 03:23:53;;;;;;;21.83;4.30;;;4.00;99.90;;;5.16;100.00;101199.44;5072703;28;20033;-77
2022/02/23 03:26:23;;;;;;;23.08;4.70;;;4.00;99.90;;;5.08;100.00;101197.34;5072531;28;20027;-77
2022/02/23 03:28:49;;;;;;;24.40;4.32;;;4.00;99.90;;;5.12;100.00;101201.16;5071209;28;20020;-78
2022/02/23 03:31:20;;;;;;;18.33;3.83;;;4.00;99.90;;;5.08;100.00;101198.19;5053832;28;20090;-76
2022/02/23 03:33:49;;;;;;;16.65;3.95;;;4.00;99.90;;;5.09;100.00;101205.38;5072729;28;20028;-77
2022/02/23 03:36:18;;;;;;;18.27;4.30;;;4.00;99.90;;;5.14;100.00;101209.97;5071832;28;20028;-77
2022/02/23 03:38:46;;;;;;;18.63;3.90;;;4.00;99.90;;;5.08;100.00;101206.50;5071826;28;20067;-78
2022/02/23 03:41:13;;;;;;;21.95;3.40;;;4.00;99.90;;;5.12;100.00;101221.38;5053778;28;20527;-76
2022/02/23 03:43:40;;;;;;;13.48;3.17;;;4.00;99.90;;;5.07;100.00;101224.22;5054067;28;20037;-77
2022/02/23 03:46:06;;;;;;;17.85;4.00;;;4.00;99.90;;;5.08;100.00;101230.59;5072307;28;20505;-77
2022/02/23 03:48:32;;;;;;;22.23;4.07;;;4.00;99.90;;;5.07;100.00;101234.50;5071978;28;20020;-77
2022/02/23 03:50:58;;;;;;;17.55;3.40;;;4.00;99.90;;;5.07;100.00;101235.31;5054035;28;20109;-77
2022/02/23 03:53:24;;;;;;;21.63;4.32;;;4.00;99.90;;;5.02;100.00;101240.13;5051895;28;20033;-76
2022/02/23 03:55:50;;;;;;;14.05;3.92;;;4.00;99.90;;;5.06;100.00;101243.94;5051933;28;20392;-77
2022/02/23 03:58:16;;;;;;;25.30;4.78;;;4.00;99.90;;;4.96;100.00;101253.25;5051369;28;20035;-77
2022/02/23 04:00:42;;;;;;;23.35;3.50;;;3.90;99.90;;;4.99;100.00;101257.34;5061977;28;20041;-77
2022/02/23 04:03:11;;;;;;;23.10;3.80;;;3.90;99.90;;;4.96;100.00;101250.47;5064011;28;20115;-77
2022/02/23 04:05:37;;;;;;;14.57;4.47;;;3.90;99.90;;;4.94;100.00;101266.59;5069667;28;20039;-76
2022/02/23 04:08:03;;;;;;;24.73;4.40;;;3.80;99.90;;;4.92;100.00;101265.22;5072400;28;20032;-76
2022/02/23 04:10:29;;;;;;;14.38;3.00;;;3.80;99.90;;;4.90;100.00;101276.63;5072063;28;20021;-77
2022/02/23 04:12:54;;;;;;;15.57;3.75;;;3.80;99.90;;;4.89;100.00;101285.22;5070168;28;20023;-76
2022/02/23 04:15:20;;;;;;;22.25;3.33;;;3.80;99.90;;;4.92;100.00;101287.38;5071285;28;20028;-77
2022/02/23 04:17:49;;;;;;;17.65;3.13;;;3.80;99.90;;;4.94;100.00;101287.91;5071645;28;20071;-76
2022/02/23 04:20:15;;;;;;;28.23;5.28;;;3.80;99.90;;;4.98;100.00;101294.47;5071703;28;20134;-78
2022/02/23 04:22:43;;;;;;;17.08;3.83;;;3.90;99.90;;;4.98;100.00;101300.81;5070649;28;20128;-76
2022/02/23 04:25:10;;;;;;;20.33;3.63;;;3.90;99.90;;;5.06;100.00;101307.63;5071197;28;20032;-77
2022/02/23 04:27:37;;;;;;;22.35;4.57;;;3.90;99.90;;;5.08;100.00;101297.03;5071178;28;20025;-77
2022/02/23 04:30:06;;;;;;;25.75;4.18;;;4.00;99.90;;;5.13;100.00;101311.63;5071127;28;20040;-77
2022/02/23 04:32:33;;;;;;;20.63;3.95;;;4.00;99.90;;;5.18;100.00;101307.94;5074785;28;20032;-77
2022/02/23 04:34:59;;;;;;;15.52;4.00;;;4.00;99.90;;;5.13;100.00;101313.56;5075145;28;20103;-77
2022/02/23 04:37:29;;;;;;;20.02;3.63;;;4.00;99.90;;;5.01;100.00;101322.34;5074727;28;20028;-78
2022/02/23 04:40:00;;;;;;;13.73;3.85;;;4.00;99.90;;;5.08;100.00;101310.88;5075475;28;20450;-77
2022/02/23 04:42:26;;;;;;;26.58;4.78;;;3.90;99.90;;;5.02;100.00;101321.25;5075343;28;20038;-78
2022/02/23 04:44:51;;;;;;;25.17;4.20;;;4.00;99.90;;;5.01;100.00;101316.03;5075475;28;20222;-77
2022/02/23 04:47:20;;;;;;;27.25;4.97;;;4.00;99.90;;;5.06;100.00;101327.81;5057381;28;20119;-78
2022/02/23 04:49:46;;;;;;;17.17;4.05;;;4.00;99.90;;;5.05;100.00;101323.41;5067619;28;20033;-76
2022/02/23 04:52:12;;;;;;;15.82;3.42;;;4.00;99.90;;;5.06;100.00;101324.22;5055869;28;20618;-77
2022/02/23 04:54:38;;;;;;;18.83;5.22;;;4.00;99.90;;;4.93;100.00;101331.38;5056048;28;20025;-78
2022/02/23 04:57:04;;;;;;;18.02;3.58;;;3.90;99.90;;;4.89;100.00;101329.50;5057252;28;20059;-78
2022/02/23 04:59:30;;;;;;;12.05;3.95;;;3.80;99.90;;;4.83;100.00;101336.25;5076100;22;20114;-77
2022/02/23 05:01:56;;;;;;;18.35;3.72;;;3.80;99.90;;;4.83;100.00;101342.63;5037651;28;20267;-77
2022/02/23 05:04:22;;;;;;;19.58;3.90;;;3.80;99.90;;;4.84;100.00;101343.44;5055352;28;20498;-77
2022/02/23 05:06:47;;;;;;;13.77;3.30;;;3.80;99.90;;;4.81;100.00;101344.06;5057711;28;20032;-77
2022/02/23 05:09:16;;;;;;;19.10;3.50;;;3.80;99.90;;;4.58;100.00;101341.09;5055493;28;20033;-78
2022/02/23 05:11:42;;;;;;;16.15;3.50;;;3.70;99.90;;;4.44;100.00;101345.75;5055096;28;20068;-78
2022/02/23 05:14:11;;;;;;;17.88;3.40;;;3.70;99.90;;;4.41;100.00;101348.28;5037241;28;20091;-77
2022/02/23 05:16:37;;;;;;;18.67;4.00;;;3.70;99.90;;;4.44;100.00;101348.50;5055647;28;20040;-77
2022/02/23 05:19:04;;;;;;;22.20;4.50;;;3.70;99.90;;;4.48;100.00;101359.81;5055252;28;20049;-78
2022/02/23 05:21:30;;;;;;;18.15;4.00;;;3.70;99.90;;;4.50;100.00;101354.78;5055097;28;20574;-77
2022/02/23 05:23:56;;;;;;;17.38;4.85;;;3.70;99.90;;;4.48;100.00;101359.81;5055475;28;20040;-77
2022/02/23 05:26:31;;;;;;;13.13;3.00;;;3.70;99.90;;;4.44;100.00;101359.59;5055229;28;20063;-78
2022/02/23 05:28:57;;;;;;;20.55;3.70;;;3.70;99.90;;;4.36;100.00;101363.03;5055372;28;20028;-77
2022/02/23 05:31:22;;;;;;;18.15;4.50;;;3.70;99.90;;;4.31;100.00;101371.38;5055779;28;20115;-77
2022/02/23 05:33:48;;;;;;;19.92;4.20;;;3.60;99.90;;;4.23;100.00;101372.06;5055825;28;20041;-77
2022/02/23 05:36:14;;;;;;;22.00;6.05;;;3.60;99.90;;;4.23;100.00;101375.66;5037510;28;20033;-77
2022/02/23 05:38:43;;;;;;;15.02;4.20;;;3.50;99.90;;;4.24;100.00;101380.06;5054777;28;20072;-77
2022/02/23 05:41:09;;;;;;;13.13;3.45;;;3.50;99.90;;;4.26;100.00;101382.53;5036857;28;20028;-77
2022/02/23 05:43:34;;;;;;;17.38;4.15;;;3.50;99.90;;;4.23;100.00;101392.25;5055561;28;20112;-77
2022/02/23 05:46:03;;;;;;;23.23;5.00;;;3.50;99.90;;;4.23;100.00;101383.97;5054725;28;20056;-76
2022/02/23 05:48:32;;;;;;;25.55;4.43;;;3.50;99.90;;;4.54;100.00;101391.81;5054334;28;20040;-77
2022/02/23 05:51:01;;;;;;;20.48;4.20;;;3.50;99.90;;;4.60;100.00;101387.81;5073063;28;20037;-77
2022/02/23 05:53:28;;;;;;;16.90;4.95;;;3.50;99.90;;;4.63;100.00;101401.88;5075188;28;20391;-77
2022/02/23 05:55:53;;;;;;;16.27;4.50;;;3.50;99.90;;;4.61;100.00;101392.25;5056876;28;20115;-77
2022/02/23 05:58:19;;;;;;;16.27;4.68;;;3.50;99.90;;;4.55;100.00;101394.28;5074912;28;20082;-77
2022/02/23 06:00:45;;;;;;;29.90;4.63;;;3.50;99.90;;;4.56;100.00;101404.19;5073583;28;20507;-77
2022/02/23 06:03:11;;;;;;;20.42;3.88;;;3.50;99.90;;;4.55;100.00;101394.28;5072567;28;20091;-77
2022/02/23 06:05:37;;;;;;;18.45;3.58;;;3.50;99.90;;;4.50;100.00;101402.63;5075359;28;20028;-77
2022/02/23 06:08:04;;;;;;;15.82;3.80;;;3.40;99.90;;;4.57;100.00;101402.25;5074557;28;20125;-77
2022/02/23 06:10:30;;;;;;;21.95;4.38;;;3.50;99.90;;;4.59;100.00;101398.06;5075333;28;20028;-78
2022/02/23 06:12:58;;;;;;;13.68;3.80;;;3.50;99.90;;;4.53;100.00;101399.28;5076468;28;20024;-76
2022/02/23 06:15:25;;;;;;;12.52;3.95;;;3.50;99.90;;;4.49;100.00;101401.00;5076344;28;20495;-77
2022/02/23 06:17:51;;;;;;;16.17;3.75;;;3.40;99.90;;;4.44;100.00;101405.78;5074847;28;20115;-75
2022/02/23 06:20:17;;;;;;;20.25;4.05;;;3.40;99.90;;;4.44;100.00;101406.59;5075994;28;20108;-76
2022/02/23 06:22:43;;;;;;;19.92;4.78;;;3.40;99.90;;;4.39;100.00;101414.16;5074999;28;20035;-76
2022/02/23 06:25:09;;;;;;;23.48;5.00;;;3.40;99.90;;;4.45;100.00;101415.72;5057175;28;20032;-78
2022/02/23 06:27:40;;;;;;;21.30;4.43;;;3.40;99.90;;;4.56;100.00;101417.25;5075372;28;20100;-78
2022/02/23 06:30:10;;;;;;;21.85;4.75;;;3.50;99.90;;;4.58;100.00;101417.75;5056216;28;20020;-77
2022/02/23 06:32:36;;;;;;;16.70;4.57;;;3.50;99.90;;;4.58;100.00;101428.81;5058127;28;20030;-76
2022/02/23 06:35:03;;;;;;;21.60;5.25;;;3.50;99.90;;;4.58;100.00;101431.59;5072620;28;20028;-78
2022/02/23 06:37:29;;;;;;;18.80;4.30;;;3.50;99.90;;;4.57;100.00;101439.06;5074368;28;20048;-78
2022/02/23 06:39:55;;;;;;;21.58;5.20;;;3.50;99.90;;;4.60;100.00;101435.69;5074805;28;20028;-76
2022/02/23 06:42:31;;;;;;;17.00;4.20;;;3.50;99.90;;;4.63;100.00;101439.78;5057110;28;20365;-78
2022/02/23 06:45:02;;;;;;;15.88;3.88;;;3.50;99.90;;;4.64;100.00;101438.69;5074229;28;20041;-76
2022/02/23 06:47:27;;;;;;;17.58;3.92;;;3.60;99.90;;;4.65;100.00;101443.94;5074480;28;20429;-76
2022/02/23 06:49:53;;;;;;;16.50;3.20;;;3.60;99.90;;;4.71;100.00;101439.13;5065704;28;20025;-76
2022/02/23 06:52:22;;;;;;;18.48;5.95;;;3.60;99.90;;;4.75;100.00;101443.75;5035824;28;20021;-77
2022/02/23 06:54:57;;;;;;;16.27;4.72;;;3.60;99.90;;;4.83;100.00;101444.19;5053498;28;20069;-78
2022/02/23 06:57:24;;;;;;;20.10;4.85;;;3.70;99.90;;;4.83;100.00;101446.97;5054468;28;20114;-78
2022/02/23 06:59:52;;;;;;;16.17;4.60;;;3.70;99.90;;;4.89;100.00;101454.06;5054003;28;20061;-78
2022/02/23 07:02:22;;;;;;;22.15;4.65;;;3.70;99.90;;;4.97;100.00;101451.47;5054833;28;20036;-76
2022/02/23 07:04:50;;;;;;;15.73;4.60;;;3.80;99.90;;;5.08;100.00;101464.00;5054977;28;20029;-77
2022/02/23 07:07:19;;;;;;;16.70;4.20;;;3.90;99.90;;;5.24;100.00;101461.78;5052374;28;20032;-78
2022/02/23 07:09:45;;;;;;;24.52;4.22;;;4.00;99.90;;;5.40;100.00;101468.72;5037059;28;20025;-77
2022/02/23 07:12:14;;;;;;;16.60;3.97;;;4.20;99.90;;;5.53;100.00;101467.94;5055769;28;20022;-78
2022/02/23 07:14:39;;;;;;;14.95;4.03;;;4.40;99.90;;;5.74;100.00;101466.44;5054764;28;20036;-77
2022/02/23 07:17:10;;;;;;;18.35;4.63;;;4.50;99.90;;;5.93;100.00;101471.94;5037205;28;20028;-78
2022/02/23 07:19:39;;;;;;;21.25;4.82;;;4.70;99.90;;;6.10;100.00;101471.34;5054062;28;20060;-78
2022/02/23 07:22:05;;;;;;;19.30;4.50;;;4.80;99.90;;;6.11;100.00;101479.31;5055147;28;20569;-76
2022/02/23 07:24:32;;;;;;;20.27;4.53;;;5.00;99.90;;;6.38;100.00;101478.50;5055808;28;20473;-78
2022/02/23 07:26:59;;;;;;;22.38;4.60;;;5.10;99.90;;;6.64;100.00;101479.59;5037609;28;20029;-78
2022/02/23 07:29:25;;;;;;;23.48;4.50;;;5.30;99.90;;;6.77;100.00;101475.97;5053434;28;20024;-77
2022/02/23 07:31:51;;;;;;;24.75;4.22;;;5.50;99.90;;;7.03;100.00;101478.94;5055371;28;20051;-78
2022/02/23 07:34:18;;;;;;;11.25;4.10;;;5.70;99.90;;;7.27;100.00;101481.41;5055561;28;20032;-76
2022/02/23 07:36:48;;;;;;;18.05;3.95;;;5.80;99.90;;;7.55;100.00;101487.66;5054600;28;20037;-78
2022/02/23 07:39:21;;;;;;;14.90;4.40;;;6.00;99.90;;;7.85;98.43;101484.91;5037879;28;20040;-79
2022/02/23 07:41:46;;;;;;;16.55;3.90;;;6.30;99.90;;;8.00;96.09;101492.00;5055555;28;20055;-79
2022/02/23 07:44:13;;;;;;;13.60;3.45;;;6.50;99.90;;;7.95;96.20;101487.41;5054557;28;20433;-79
2022/02/23 07:46:39;;;;;;;14.60;4.18;;;6.70;99.90;;;8.39;94.35;101496.75;5058331;28;20036;-75
2022/02/23 07:49:16;;;;;;;16.70;3.75;;;6.90;99.90;;;8.59;93.54;101498.94;5065844;28;20136;-76
2022/02/23 07:51:42;;;;;;;22.58;4.72;;;7.20;99.90;;;8.80;91.62;101494.38;5065307;28;20092;-76
2022/02/23 07:54:09;;;;;;;14.57;3.88;;;7.40;99.90;;;8.86;91.37;101501.44;5081439;28;20032;-78
2022/02/23 07:56:35;;;;;;;14.07;3.50;;;7.60;99.90;;;9.10;90.43;101502.94;5083287;28;20043;-77
2022/02/23 07:59:01;;;;;;;14.70;3.85;;;7.70;99.90;;;8.95;89.55;101493.94;5075174;28;20487;-79
2022/02/23 08:01:43;;;;;;;16.55;3.95;;;7.80;99.90;;;8.87;90.33;101508.66;5072119;28;20041;-79
2022/02/23 08:04:10;;;;;;;11.07;4.20;;;7.70;99.90;;;8.77;90.89;101500.59;5075404;28;20036;-76
2022/02/23 08:06:36;;;;;;;14.75;4.22;;;7.60;99.90;;;8.66;91.33;101512.38;5078035;28;20062;-77
2022/02/23 08:09:03;;;;;;;17.17;4.20;;;7.60;99.90;;;8.87;90.15;101511.44;5079598;28;20503;-75
2022/02/23 08:11:31;;;;;;;16.15;4.18;;;7.70;99.90;;;8.86;90.74;101525.72;5078985;28;20107;-77
2022/02/23 08:14:02;;;;;;;14.60;3.72;;;7.70;99.90;;;8.90;90.72;101524.72;5078211;28;20036;-78
2022/02/23 08:19:34;;;;;;;12.95;3.67;;;7.90;99.90;;;9.32;88.98;101528.66;5079543;28;20036;-77
2022/02/23 08:22:13;;;;;;;11.98;3.53;;;8.00;99.90;;;9.27;88.92;101520.47;5078594;28;20036;-78
2022/02/23 08:24:49;;;;;;;13.00;3.55;;;8.10;99.90;;;9.24;90.04;101517.53;5078259;28;20053;-77
2022/02/23 08:27:18;;;;;;;14.27;3.47;;;8.10;99.90;;;9.50;87.19;101527.50;5079423;28;20142;-78
2022/02/23 08:29:46;;;;;;;20.75;4.47;;;8.30;99.90;;;9.30;88.19;101524.56;5077334;28;20062;-78
2022/02/23 08:32:18;;;;;;;18.23;4.45;;;8.20;99.90;;;9.47;88.67;101519.00;5078443;28;20044;-77
2022/02/23 08:34:48;;;;;;;13.25;3.88;;;8.30;99.90;;;9.43;88.06;101526.38;5059332;28;20511;-77
2022/02/23 08:37:19;;;;;;;19.77;4.18;;;8.40;99.90;;;9.84;87.51;101528.59;5078482;28;20112;-79
2022/02/23 08:39:48;;;;;;;19.38;4.57;;;8.50;99.90;;;9.90;84.77;101522.50;5062187;28;20028;-78
2022/02/23 08:42:17;;;;;;;17.23;4.20;;;8.60;99.90;;;10.15;85.54;101523.59;5071618;28;20033;-77
2022/02/23 08:44:44;;;;;;;15.90;4.13;;;8.80;99.90;;;10.43;85.57;101527.63;5091368;28;20415;-77
2022/02/23 08:47:12;;;;;;;15.57;4.93;;;9.00;99.90;;;10.29;83.19;101524.22;5080985;28;20050;-78
2022/02/23 08:49:41;;;;;;;18.33;4.03;;;9.10;99.90;;;10.07;84.19;101533.63;5072379;28;20369;-78
2022/02/23 08:52:09;;;;;;;15.25;3.72;;;9.00;99.90;;;10.43;83.39;101526.78;5058656;28;20033;-76
2022/02/23 08:54:39;;;;;;;16.05;4.72;;;9.20;99.90;;;10.51;82.19;101537.91;5057813;28;20036;-76
2022/02/23 08:57:05;;;;;;;16.33;3.92;;;9.30;99.90;;;10.48;81.82;101533.00;5057073;28;20399;-79
2022/02/23 08:59:31;;;;;;;17.40;4.57;;;9.30;99.90;;;10.79;80.46;101537.44;5055571;28;20044;-77
2022/02/23 09:02:09;;;;;;;15.27;4.85;;;9.50;99.90;;;10.66;81.02;101533.72;5039677;28;20044;-79
2022/02/23 09:04:35;;;;;;;19.20;4.47;;;9.50;99.90;;;10.89;80.49;101528.63;5057094;28;20029;-78
2022/02/23 09:07:01;;;;;;;20.48;4.60;;;9.60;99.90;;;11.20;79.09;101531.88;5056977;28;20488;-79
2022/02/23 09:09:27;;;;;;;19.83;4.10;;;9.80;99.90;;;11.11;77.91;101533.91;5056776;28;20033;-77
2022/02/23 09:11:53;;;;;;;16.73;4.10;;;9.90;99.90;;;11.20;78.24;101534.69;5040500;28;20491;-78
2022/02/23 09:14:19;;;;;;;18.55;4.47;;;9.90;99.90;;;11.14;77.36;101533.25;5038586;28;20506;-78
2022/02/23 09:16:49;;;;;;;14.30;4.30;;;9.90;99.90;;;11.04;77.80;101534.44;5037133;28;20056;-78
2022/02/23 09:19:15;;;;;;;20.63;4.07;;;9.90;99.90;;;11.01;77.74;101531.53;5055926;28;20086;-79
2022/02/23 09:21:44;;;;;;;11.25;3.45;;;9.90;99.90;;;11.26;77.16;101541.69;5058605;28;20040;-77
2022/02/23 09:24:13;;;;;;;16.75;3.83;;;10.00;99.90;;;11.33;77.04;101535.56;5057506;28;20096;-79
2022/02/23 09:26:39;;;;;;;15.40;3.80;;;10.10;99.90;;;11.47;76.13;101534.09;5056793;28;20025;-78
2022/02/23 09:29:06;;;;;;;23.17;5.13;;;10.20;99.90;;;11.70;77.31;101544.91;5057477;28;20025;-76
2022/02/23 09:31:36;;;;;;;15.82;4.07;;;10.30;99.90;;;11.63;76.11;101525.88;5057337;28;20024;-77
2022/02/23 09:34:02;;;;;;;20.23;3.97;;;10.40;99.90;;;11.52;78.60;101539.50;5058035;28;20029;-76
2022/02/23 09:36:28;;;;;;;18.38;4.38;;;10.40;99.90;;;12.10;76.02;101529.22;5060408;28;20084;-77
2022/02/23 09:38:54;;;;;;;19.15;4.95;;;10.60;99.90;;;11.98;73.76;101532.78;5059625;28;20143;-77
2022/02/23 09:41:22;;;;;;;16.92;4.00;;;10.60;99.90;;;12.19;73.55;101529.94;5057650;28;20500;-77
2022/02/23 09:43:52;;;;;;;15.60;4.25;;;10.80;99.90;;;12.01;73.59;101534.91;5057445;28;20078;-77
2022/02/23 09:46:24;;;;;;;17.75;4.88;;;10.70;99.90;;;12.11;73.72;101542.84;5056576;28;20595;-76
2022/02/23 09:48:53;;;;;;;15.00;4.07;;;10.70;99.90;;;12.19;73.25;101540.31;5056569;28;20086;-78
2022/02/23 09:51:21;;;;;;;24.02;4.45;;;10.80;99.90;;;12.33;73.00;101536.00;5036231;28;20036;-77
2022/02/23 09:53:47;;;;;;;15.93;3.85;;;10.80;99.90;;;12.66;72.28;101533.09;5035706;28;20435;-77
2022/02/23 09:56:18;;;;;;;20.20;3.90;;;11.00;99.90;;;12.34;72.02;101540.44;5017121;28;20116;-76
2022/02/23 09:58:46;;;;;;;15.43;4.50;;;11.00;99.90;;;12.43;73.36;101537.53;5017635;28;20084;-77
2022/02/23 10:01:14;;;;;;;12.30;3.88;;;11.00;99.90;;;12.32;71.34;101537.19;5035021;28;20129;-77
2022/02/23 10:03:43;;;;;;;20.17;4.13;;;11.00;99.90;;;12.11;73.25;101536.44;5017859;28;20040;-76
2022/02/23 10:06:30;;;;;;;17.05;3.28;;;10.90;99.90;;;12.09;73.75;101534.00;5037168;28;20034;-76
2022/02/23 10:09:10;;;;;;;12.48;3.40;;;10.90;99.90;;;12.60;73.40;101543.72;5017920;28;20056;-76
2022/02/23 10:11:42;;;;;;;17.75;3.72;;;11.00;99.90;;;12.92;71.40;101541.97;5036197;28;20021;-76
2022/02/23 10:14:11;;;;;;;15.23;3.78;;;11.30;99.90;;;13.34;70.22;101534.06;5017741;28;20030;-75
2022/02/23 10:16:46;;;;;;;16.35;3.60;;;11.60;99.90;;;13.44;69.54;101532.75;5017329;28;20491;-76
2022/02/23 10:19:22;;;;;;;17.05;4.07;;;11.80;99.90;;;13.18;68.01;101538.78;5017102;28;20025;-77